Flinterduin — PEBT — position and weather

sailwx.info

Track history (hours):
 
Tides and Currents Weather Stations Pressure Air Temp Water Temp Dewpoint Dewpoint Depression Visibility Wind Speed Wind Dir Waves Ship Positions

Flinterduin

Last reported at 2017-Jul-28 10:30 UTC. Time now 2017-Jul-28 10:52 UTC.
Position N 57°07' E 011°36'.

Length 112 m; beam 15 m.

Type: Cargo ship. MMSI: 246484000.

Date/timePositionNaut miles runAvg speedWind from/ knotsBaromVisibWave heightAir tempDewpointWater temp
2017-Jul-28 10:30N 57°07' E 011°36'510.0
2017-Jul-28 10:00N 57°12' E 011°33'510.2
2017-Jul-28 09:30N 57°17' E 011°30'510.4
2017-Jul-28 09:00N 57°22' E 011°27'510.5
2017-Jul-28 08:30N 57°27' E 011°24'510.4
2017-Jul-28 08:00N 57°32' E 011°24'510.9
2017-Jul-28 07:30N 57°37' E 011°18'610.4
2017-Jul-28 06:57N 57°42' E 011°16'510.1
2017-Jul-28 06:28N 57°47' E 011°14'5 9.8
2017-Jul-28 06:00N 57°52' E 011°12'5 9.5
2017-Jul-28 05:28N 57°56' E 011°09'4 9.0
2017-Jul-28 05:00N 58°00' E 011°06'4 8.7
2017-Jul-28 04:30N 58°05' E 011°05'4 8.4
2017-Jul-28 04:00N 58°09' E 011°03'4 8.2
2017-Jul-28 03:30N 58°13' E 011°00'4 8.4
2017-Jul-28 03:00N 58°17' E 010°58'4 8.4
2017-Jul-28 02:30N 58°21' E 010°55'4 8.4
2017-Jul-28 02:01N 58°24' E 010°52'5 8.9
2017-Jul-28 01:25N 58°29' E 010°50'4 9.7
2017-Jul-28 01:00N 58°33' E 010°49'510.1
2017-Jul-28 00:30N 58°38' E 010°47'510.3
2017-Jul-28 00:00N 58°43' E 010°45'510.3
2017-Jul-27 23:30N 58°48' E 010°43'510.5
2017-Jul-27 23:00N 58°54' E 010°40'510.3
2017-Jul-27 22:30N 58°59' E 010°38'510.1
2017-Jul-27 22:00N 59°03' E 010°35'4 8.1
2017-Jul-27 21:30N 59°07' E 010°34'5 9.8
2017-Jul-27 21:00N 59°12' E 010°36'510.2
2017-Jul-27 20:30N 59°17' E 010°35'5 9.9
2017-Jul-27 20:00N 59°22' E 010°33'510.1
2017-Jul-27 19:30N 59°27' E 010°31'510.7
2017-Jul-27 19:00N 59°31' E 010°25'5 9.5
2017-Jul-27 18:30N 59°36' E 010°25'4 8.3
2017-Jul-27 18:00N 59°40' E 010°23'510.4
2017-Jul-27 17:30N 59°44' E 010°16'1 2.1
2017-Jul-27 17:00N 59°44' E 010°14'0 0.0
2017-Jul-27 16:30N 59°44' E 010°14'0 0.0
2017-Jul-27 16:00N 59°44' E 010°14'0 0.0
2017-Jul-27 15:30N 59°44' E 010°14'0 0.0
2017-Jul-27 15:00N 59°44' E 010°14'0 0.0
2017-Jul-27 14:00N 59°44' E 010°14'0 0.0
2017-Jul-27 13:30N 59°44' E 010°14'0 0.0
2017-Jul-27 13:00N 59°44' E 010°14'0 0.0
2017-Jul-27 12:30N 59°44' E 010°14'0 0.0
2017-Jul-27 12:00N 59°44' E 010°14'0 0.0
2017-Jul-27 11:30N 59°44' E 010°14'0 0.0
2017-Jul-27 11:00N 59°44' E 010°14'0 0.0
2017-Jul-27 10:30N 59°44' E 010°14'0 0.0
2017-Jul-27 10:00N 59°44' E 010°14'0 0.0
2017-Jul-27 09:30N 59°44' E 010°14'0 0.0
2017-Jul-27 09:00N 59°44' E 010°14'0 0.0
2017-Jul-27 08:30N 59°44' E 010°14'0 0.0
2017-Jul-27 08:00N 59°44' E 010°14'0 0.0
2017-Jul-27 07:30N 59°44' E 010°14'0 0.0
2017-Jul-27 07:00N 59°44' E 010°14'0 0.0
2017-Jul-27 06:30N 59°44' E 010°14'0 0.0
2017-Jul-27 06:00N 59°44' E 010°14'0 0.0
2017-Jul-27 05:30N 59°44' E 010°14'0 0.0
2017-Jul-27 05:00N 59°44' E 010°14'0 0.0
2017-Jul-27 04:30N 59°44' E 010°14'0 0.0
2017-Jul-27 04:00N 59°44' E 010°14'0 0.0
2017-Jul-27 03:30N 59°44' E 010°14'0 0.0
2017-Jul-27 03:00N 59°44' E 010°14'0 0.0
2017-Jul-27 02:30N 59°44' E 010°14'0 0.0
2017-Jul-27 02:00N 59°44' E 010°14'0 0.0
2017-Jul-27 01:30N 59°44' E 010°14'0 0.0
2017-Jul-27 01:00N 59°44' E 010°14'0 0.0
2017-Jul-27 00:30N 59°44' E 010°14'0 0.0
2017-Jul-27 00:00N 59°44' E 010°14'0 0.0
2017-Jul-26 23:30N 59°44' E 010°14'0 0.0
2017-Jul-26 23:00N 59°44' E 010°14'0 0.0
2017-Jul-26 22:29N 59°44' E 010°14'0 0.0
2017-Jul-26 21:56N 59°44' E 010°14'0 0.0
2017-Jul-26 21:29N 59°44' E 010°14'0 0.0
2017-Jul-26 20:59N 59°44' E 010°14'0 0.0
2017-Jul-26 20:29N 59°44' E 010°14'0 0.0
2017-Jul-26 19:59N 59°44' E 010°14'0 0.0
2017-Jul-26 19:29N 59°44' E 010°14'0 0.0
2017-Jul-26 18:59N 59°44' E 010°14'0 0.0
2017-Jul-26 18:29N 59°44' E 010°14'0 0.0
2017-Jul-26 17:59N 59°44' E 010°14'0 0.0
2017-Jul-26 17:26N 59°44' E 010°14'0 0.0
2017-Jul-26 16:59N 59°44' E 010°14'0 0.0
2017-Jul-26 16:29N 59°44' E 010°14'0 0.0
2017-Jul-26 15:59N 59°44' E 010°14'0 0.0
2017-Jul-26 15:29N 59°44' E 010°14'0 0.0
2017-Jul-26 14:59N 59°44' E 010°14'0 0.0
2017-Jul-26 13:59N 59°44' E 010°14'0 0.0
2017-Jul-26 13:29N 59°44' E 010°14'0 0.0
2017-Jul-26 12:59N 59°44' E 010°14'0 0.0
2017-Jul-26 12:29N 59°44' E 010°14'0 0.0
2017-Jul-26 11:59N 59°44' E 010°14'0 0.0
2017-Jul-26 11:29N 59°44' E 010°14'0 0.0
2017-Jul-26 10:59N 59°44' E 010°14'0 0.0
2017-Jul-26 10:30N 59°44' E 010°14'1 1.5
2017-Jul-26 10:00N 59°44' E 010°15'510.5
2017-Jul-26 09:30N 59°41' E 010°23'5 9.5
2017-Jul-26 09:00N 59°36' E 010°25'5 9.5
2017-Jul-26 08:30N 59°31' E 010°25'612.0
2017-Jul-26 08:00N 59°27' E 010°33'611.9
2017-Jul-26 07:30N 59°21' E 010°36'612.2
2017-Jul-26 07:00N 59°15' E 010°38'612.6
2017-Jul-26 06:30N 59°09' E 010°38'510.5
2017-Jul-26 06:00N 59°04' E 010°34'4 8.7
2017-Jul-26 05:30N 58°59' E 010°34'4 8.2
2017-Jul-26 05:00N 58°56' E 010°31'4 7.9
2017-Jul-26 04:30N 58°52' E 010°27'4 7.9
2017-Jul-26 04:00N 58°49' E 010°23'4 7.9
2017-Jul-26 03:30N 58°45' E 010°19'4 7.9
2017-Jul-26 03:00N 58°42' E 010°16'4 7.9
2017-Jul-26 02:30N 58°38' E 010°13'4 7.8
2017-Jul-26 02:00N 58°35' E 010°09'4 7.9
2017-Jul-26 01:30N 58°31' E 010°06'4 8.0
2017-Jul-26 01:00N 58°28' E 010°02'4 8.0
2017-Jul-26 00:30N 58°24' E 009°59'47 7.9
2017-Jul-25 18:36N 57°47' E 009°07'1 8.1
2017-Jul-25 18:29N 57°46' E 009°06'4 8.7
2017-Jul-25 18:00N 57°42' E 009°01'4910.2
2017-Jul-25 13:11N 57°03' E 008°06'4 9.5
2017-Jul-25 12:49N 56°59' E 008°05'3 9.1
2017-Jul-25 12:30N 56°58' E 008°00'181 8.9
2017-Jul-24 16:02N 54°20' E 005°22'0 8.4
2017-Jul-24 16:00N 54°20' E 005°22'77 9.2
2017-Jul-24 07:38N 53°09' E 004°31'2 9.2
2017-Jul-24 07:28N 53°08' E 004°30'4 9.7
2017-Jul-24 07:00N 53°04' E 004°26'5 9.9
2017-Jul-24 06:30N 52°60' E 004°21'611.2
2017-Jul-24 06:00N 52°54' E 004°18'712.9
2017-Jul-24 05:30N 52°49' E 004°13'2712.6
2017-Jul-24 03:22N 52°29' E 003°42'4914.9
2017-Jul-24 00:04N 51°43' E 003°17'0 0.0
2017-Jul-24 00:00N 51°43' E 003°17'0 0.0
2017-Jul-23 23:30N 51°43' E 003°17'3 7.0
2017-Jul-23 23:00N 51°40' E 003°20'510.4
2017-Jul-23 22:30N 51°35' E 003°24'510.0
2017-Jul-23 22:00N 51°30' E 003°27'5 9.3
2017-Jul-23 21:30N 51°27' E 003°32'4 7.5
2017-Jul-23 21:00N 51°26' E 003°38'5 9.2
2017-Jul-23 20:30N 51°23' E 003°43'5 9.9
2017-Jul-23 20:00N 51°20' E 003°49'0 0.6
2017-Jul-23 19:30N 51°19' E 003°49'2 4.8
2017-Jul-23 19:00N 51°17' E 003°50'4 8.0
2017-Jul-23 18:30N 51°13' E 003°48'3 6.6
2017-Jul-23 18:01N 51°10' E 003°47'0 0.0
2017-Jul-23 17:30N 51°10' E 003°47'0 0.0
2017-Jul-23 17:00N 51°10' E 003°47'0 0.0
2017-Jul-23 16:30N 51°10' E 003°47'0 0.0
2017-Jul-23 16:00N 51°10' E 003°47'0 0.0
2017-Jul-23 15:30N 51°10' E 003°47'0 0.0
2017-Jul-23 15:00N 51°10' E 003°47'0 0.0
2017-Jul-23 14:30N 51°10' E 003°47'0 0.0
2017-Jul-23 14:00N 51°10' E 003°47'0 0.0
2017-Jul-23 13:30N 51°10' E 003°47'0 0.0
2017-Jul-23 13:00N 51°10' E 003°47'0 0.0
2017-Jul-23 12:30N 51°10' E 003°47'0 0.0
2017-Jul-23 12:00N 51°10' E 003°47'0 0.0
2017-Jul-23 11:30N 51°10' E 003°47'0 0.0
2017-Jul-23 11:00N 51°10' E 003°47'0 0.0
2017-Jul-23 10:30N 51°10' E 003°47'0 0.0
2017-Jul-23 10:00N 51°10' E 003°47'0 0.0
2017-Jul-23 09:30N 51°10' E 003°47'0 0.0
2017-Jul-23 09:00N 51°10' E 003°47'0 0.0
2017-Jul-23 08:30N 51°10' E 003°47'0 0.0
2017-Jul-23 08:00N 51°10' E 003°47'0 0.0
2017-Jul-23 07:30N 51°10' E 003°47'0 0.0
2017-Jul-23 07:00N 51°10' E 003°47'0 0.0
2017-Jul-23 06:30N 51°10' E 003°47'0 0.0
2017-Jul-23 06:00N 51°10' E 003°47'0 0.0
2017-Jul-23 05:30N 51°10' E 003°47'0 0.0
2017-Jul-23 05:00N 51°10' E 003°47'0 0.0
2017-Jul-23 04:30N 51°10' E 003°47'0 0.0
2017-Jul-23 04:00N 51°10' E 003°47'0 0.0
2017-Jul-23 03:30N 51°10' E 003°47'0 0.0
2017-Jul-23 03:00N 51°10' E 003°47'0 0.0
2017-Jul-23 02:30N 51°10' E 003°47'0 0.0
2017-Jul-23 02:00N 51°10' E 003°47'0 0.0
2017-Jul-23 01:30N 51°10' E 003°47'0 0.0
2017-Jul-23 01:00N 51°10' E 003°47'0 0.0
2017-Jul-23 00:30N 51°10' E 003°47'0 0.0
2017-Jul-23 00:00N 51°10' E 003°47'0 0.0
2017-Jul-22 23:30N 51°10' E 003°47'0 0.0
2017-Jul-22 23:00N 51°10' E 003°47'0 0.0
2017-Jul-22 22:30N 51°10' E 003°47'0 0.0
2017-Jul-22 22:00N 51°10' E 003°47'0 0.0
2017-Jul-22 21:30N 51°10' E 003°47'0 0.0
2017-Jul-22 21:00N 51°10' E 003°47'0 0.0
2017-Jul-22 20:29N 51°10' E 003°47'0 0.0
2017-Jul-22 19:56N 51°10' E 003°47'0 0.0
2017-Jul-22 19:30N 51°10' E 003°47'0 0.0
2017-Jul-22 19:00N 51°10' E 003°47'0 0.0
2017-Jul-22 18:30N 51°10' E 003°47'0 0.0
2017-Jul-22 18:00N 51°10' E 003°47'0 0.0
2017-Jul-22 17:30N 51°10' E 003°47'0 0.0
2017-Jul-22 17:00N 51°10' E 003°47'0 0.0
2017-Jul-22 16:30N 51°10' E 003°47'0 0.0
2017-Jul-22 16:01N 51°10' E 003°47'0 0.0
2017-Jul-22 15:30N 51°10' E 003°47'0 0.0
2017-Jul-22 15:00N 51°10' E 003°47'0 0.0
2017-Jul-22 14:00N 51°10' E 003°47'0 0.0
2017-Jul-22 13:30N 51°10' E 003°47'0 0.0
2017-Jul-22 13:00N 51°10' E 003°47'0 0.0
2017-Jul-22 12:30N 51°10' E 003°47'0 0.0
2017-Jul-22 12:00N 51°10' E 003°47'0 0.0
2017-Jul-22 11:30N 51°10' E 003°47'0 0.0
2017-Jul-22 11:00N 51°10' E 003°47'0 0.0
2017-Jul-22 10:30N 51°10' E 003°47'0 0.0
2017-Jul-22 10:00N 51°10' E 003°47'0 0.0
2017-Jul-22 09:30N 51°10' E 003°47'0 0.0
2017-Jul-22 09:00N 51°10' E 003°47'0 0.0
2017-Jul-22 08:30N 51°10' E 003°47'0 0.0
2017-Jul-22 08:00N 51°10' E 003°47'0 0.0
2017-Jul-22 07:30N 51°10' E 003°47'0 0.0
2017-Jul-22 07:00N 51°10' E 003°47'0 0.0
2017-Jul-22 06:30N 51°10' E 003°47'0 0.0
2017-Jul-22 06:00N 51°10' E 003°47'0 0.0
2017-Jul-22 05:30N 51°10' E 003°47'0 0.0
2017-Jul-22 05:00N 51°10' E 003°47'0 0.0
2017-Jul-22 04:30N 51°10' E 003°47'0 0.0
2017-Jul-22 04:00N 51°10' E 003°47'0 0.0
2017-Jul-22 03:30N 51°10' E 003°47'0 0.0
2017-Jul-22 03:00N 51°10' E 003°47'0 0.0
2017-Jul-22 02:30N 51°10' E 003°47'0 0.0
2017-Jul-22 02:00N 51°10' E 003°47'0 0.0
2017-Jul-22 01:30N 51°10' E 003°47'0 0.0
2017-Jul-22 01:00N 51°10' E 003°47'0 0.0
2017-Jul-22 00:30N 51°10' E 003°47'0 0.0
2017-Jul-22 00:00N 51°10' E 003°47'0 0.0
2017-Jul-21 23:30N 51°10' E 003°47'0 0.0
2017-Jul-21 23:00N 51°10' E 003°47'0 0.0
2017-Jul-21 22:30N 51°10' E 003°47'0 0.0
2017-Jul-21 22:00N 51°10' E 003°47'0 0.0
2017-Jul-21 21:30N 51°10' E 003°47'0 0.0
2017-Jul-21 21:00N 51°10' E 003°47'0 0.0
2017-Jul-21 20:30N 51°10' E 003°47'0 0.0
2017-Jul-21 20:00N 51°10' E 003°47'0 0.0
2017-Jul-21 19:30N 51°10' E 003°47'0 0.0
2017-Jul-21 19:00N 51°10' E 003°47'0 0.0
2017-Jul-21 18:30N 51°10' E 003°47'0 0.0
2017-Jul-21 18:00N 51°10' E 003°47'0 0.0
2017-Jul-21 17:30N 51°10' E 003°47'0 0.0
2017-Jul-21 17:00N 51°10' E 003°47'0 0.0
2017-Jul-21 16:30N 51°10' E 003°47'0 0.0
2017-Jul-21 16:00N 51°10' E 003°47'0 0.0
2017-Jul-21 15:30N 51°10' E 003°47'0 0.0
2017-Jul-21 15:00N 51°10' E 003°47'0 0.0
2017-Jul-21 14:30N 51°10' E 003°47'0 0.0
2017-Jul-21 14:00N 51°10' E 003°47'0 0.0
2017-Jul-21 13:30N 51°10' E 003°47'0 0.0
2017-Jul-21 13:00N 51°10' E 003°47'1 1.9
2017-Jul-21 12:30N 51°11' E 003°48'4 7.5
2017-Jul-21 12:00N 51°15' E 003°49'3 6.7
2017-Jul-21 11:30N 51°18' E 003°50'2 3.9
2017-Jul-21 11:00N 51°20' E 003°49'0 0.3
2017-Jul-21 10:30N 51°20' E 003°49'4 7.5
2017-Jul-21 10:00N 51°22' E 003°44'611.8
2017-Jul-21 09:30N 51°26' E 003°36'4 8.6
2017-Jul-21 09:00N 51°25' E 003°30'612.8
2017-Jul-21 08:30N 51°24' E 003°19'612.5
2017-Jul-21 08:00N 51°24' E 003°09'611.1
2017-Jul-21 07:30N 51°24' E 003°01'511.0
2017-Jul-21 07:00N 51°22' E 002°52'510.3
2017-Jul-21 06:30N 51°21' E 002°44'3 5.7
2017-Jul-21 06:00N 51°22' E 002°40'2 4.2
2017-Jul-21 05:31N 51°22' E 002°36'2 4.2
2017-Jul-21 05:00N 51°22' E 002°33'2 4.4
2017-Jul-21 04:31N 51°22' E 002°29'3 5.7
2017-Jul-21 04:00N 51°21' E 002°25'3 5.3
2017-Jul-21 03:30N 51°19' E 002°22'3 5.8
2017-Jul-21 03:00N 51°18' E 002°18'4 7.5
2017-Jul-21 02:30N 51°15' E 002°13'4 8.1
2017-Jul-21 02:00N 51°13' E 002°07'4 8.1
2017-Jul-21 01:30N 51°11' E 002°02'4 7.6
2017-Jul-21 01:00N 51°10' E 001°56'4 8.4
2017-Jul-21 00:31N 51°08' E 001°50'4 8.6
2017-Jul-21 00:00N 51°05' E 001°45'5 9.2
2017-Jul-20 23:30N 51°02' E 001°40'5 9.7
2017-Jul-20 23:00N 50°58' E 001°35'610.9
2017-Jul-20 22:30N 50°54' E 001°29'71 8.3
2017-Jul-20 13:56N 50°16' W 000°05'3 7.9
2017-Jul-20 13:30N 50°15' W 000°10'4 7.6
2017-Jul-20 12:59N 50°14' W 000°16'4 7.3
2017-Jul-20 12:30N 50°13' W 000°22'36 7.5
2017-Jul-20 07:37N 50°04' W 001°17'1 9.5
2017-Jul-20 07:30N 50°04' W 001°18'5 9.8
2017-Jul-20 07:00N 50°02' W 001°26'510.5
2017-Jul-20 06:30N 50°01' W 001°34'611.1
2017-Jul-20 06:01N 49°60' W 001°42'612.0
2017-Jul-20 05:31N 49°58' W 001°51'612.2
2017-Jul-20 05:00N 49°57' W 002°00'612.2
2017-Jul-20 04:30N 49°55' W 002°09'1911.4
2017-Jul-20 02:48N 49°50' W 002°39'310.8
2017-Jul-20 02:30N 49°50' W 002°43'510.5
2017-Jul-20 02:01N 49°48' W 002°51'910.0
2017-Jul-20 01:07N 49°44' W 003°04'1 9.9
2017-Jul-20 00:59N 49°44' W 003°06'6 9.8
2017-Jul-20 00:23N 49°41' W 003°14'4 9.6
2017-Jul-20 00:00N 49°39' W 003°18'5 9.6
2017-Jul-19 23:30N 49°37' W 003°25'5 9.3
2017-Jul-19 23:00N 49°34' W 003°31'5 9.2
2017-Jul-19 22:30N 49°32' W 003°37'9 9.0
2017-Jul-19 21:28N 49°27' W 003°50'4 8.7
2017-Jul-19 20:59N 49°25' W 003°55'93 9.4
2017-Jul-19 11:10N 48°30' W 005°48'311.5
2017-Jul-19 10:55N 48°27' W 005°50'512.0
2017-Jul-19 10:29N 48°23' W 005°54'  
Track history (hours):
 
Tides and Currents Weather Stations Pressure Air Temp Water Temp Dewpoint Dewpoint Depression Visibility Wind Speed Wind Dir Waves Ship Positions

Flinterduin

Last reported at 2017-Jul-28 10:30 UTC. Time now 2017-Jul-28 10:52 UTC.
Position N 57°07' E 011°36'.

Length 112 m; beam 15 m.

Type: Cargo ship. MMSI: 246484000.

Date/timePositionNaut miles runAvg speedWind from/ knotsBaromVisibWave heightAir tempDewpointWater temp
2017-Jul-28 10:30N 57°07' E 011°36'510.0
2017-Jul-28 10:00N 57°12' E 011°33'510.2
2017-Jul-28 09:30N 57°17' E 011°30'510.4
2017-Jul-28 09:00N 57°22' E 011°27'510.5
2017-Jul-28 08:30N 57°27' E 011°24'510.4
2017-Jul-28 08:00N 57°32' E 011°24'510.9
2017-Jul-28 07:30N 57°37' E 011°18'610.4
2017-Jul-28 06:57N 57°42' E 011°16'510.1
2017-Jul-28 06:28N 57°47' E 011°14'5 9.8
2017-Jul-28 06:00N 57°52' E 011°12'5 9.5
2017-Jul-28 05:28N 57°56' E 011°09'4 9.0
2017-Jul-28 05:00N 58°00' E 011°06'4 8.7
2017-Jul-28 04:30N 58°05' E 011°05'4 8.4
2017-Jul-28 04:00N 58°09' E 011°03'4 8.2
2017-Jul-28 03:30N 58°13' E 011°00'4 8.4
2017-Jul-28 03:00N 58°17' E 010°58'4 8.4
2017-Jul-28 02:30N 58°21' E 010°55'4 8.4
2017-Jul-28 02:01N 58°24' E 010°52'5 8.9
2017-Jul-28 01:25N 58°29' E 010°50'4 9.7
2017-Jul-28 01:00N 58°33' E 010°49'510.1
2017-Jul-28 00:30N 58°38' E 010°47'510.3
2017-Jul-28 00:00N 58°43' E 010°45'510.3
2017-Jul-27 23:30N 58°48' E 010°43'510.5
2017-Jul-27 23:00N 58°54' E 010°40'510.3
2017-Jul-27 22:30N 58°59' E 010°38'510.1
2017-Jul-27 22:00N 59°03' E 010°35'4 8.1
2017-Jul-27 21:30N 59°07' E 010°34'5 9.8
2017-Jul-27 21:00N 59°12' E 010°36'510.2
2017-Jul-27 20:30N 59°17' E 010°35'5 9.9
2017-Jul-27 20:00N 59°22' E 010°33'510.1
2017-Jul-27 19:30N 59°27' E 010°31'510.7
2017-Jul-27 19:00N 59°31' E 010°25'5 9.5
2017-Jul-27 18:30N 59°36' E 010°25'4 8.3
2017-Jul-27 18:00N 59°40' E 010°23'510.4
2017-Jul-27 17:30N 59°44' E 010°16'1 2.1
2017-Jul-27 17:00N 59°44' E 010°14'0 0.0
2017-Jul-27 16:30N 59°44' E 010°14'0 0.0
2017-Jul-27 16:00N 59°44' E 010°14'0 0.0
2017-Jul-27 15:30N 59°44' E 010°14'0 0.0
2017-Jul-27 15:00N 59°44' E 010°14'0 0.0
2017-Jul-27 14:00N 59°44' E 010°14'0 0.0
2017-Jul-27 13:30N 59°44' E 010°14'0 0.0
2017-Jul-27 13:00N 59°44' E 010°14'0 0.0
2017-Jul-27 12:30N 59°44' E 010°14'0 0.0
2017-Jul-27 12:00N 59°44' E 010°14'0 0.0
2017-Jul-27 11:30N 59°44' E 010°14'0 0.0
2017-Jul-27 11:00N 59°44' E 010°14'0 0.0
2017-Jul-27 10:30N 59°44' E 010°14'0 0.0
2017-Jul-27 10:00N 59°44' E 010°14'0 0.0
2017-Jul-27 09:30N 59°44' E 010°14'0 0.0
2017-Jul-27 09:00N 59°44' E 010°14'0 0.0
2017-Jul-27 08:30N 59°44' E 010°14'0 0.0
2017-Jul-27 08:00N 59°44' E 010°14'0 0.0
2017-Jul-27 07:30N 59°44' E 010°14'0 0.0
2017-Jul-27 07:00N 59°44' E 010°14'0 0.0
2017-Jul-27 06:30N 59°44' E 010°14'0 0.0
2017-Jul-27 06:00N 59°44' E 010°14'0 0.0
2017-Jul-27 05:30N 59°44' E 010°14'0 0.0
2017-Jul-27 05:00N 59°44' E 010°14'0 0.0
2017-Jul-27 04:30N 59°44' E 010°14'0 0.0
2017-Jul-27 04:00N 59°44' E 010°14'0 0.0
2017-Jul-27 03:30N 59°44' E 010°14'0 0.0
2017-Jul-27 03:00N 59°44' E 010°14'0 0.0
2017-Jul-27 02:30N 59°44' E 010°14'0 0.0
2017-Jul-27 02:00N 59°44' E 010°14'0 0.0
2017-Jul-27 01:30N 59°44' E 010°14'0 0.0
2017-Jul-27 01:00N 59°44' E 010°14'0 0.0
2017-Jul-27 00:30N 59°44' E 010°14'0 0.0
2017-Jul-27 00:00N 59°44' E 010°14'0 0.0
2017-Jul-26 23:30N 59°44' E 010°14'0 0.0
2017-Jul-26 23:00N 59°44' E 010°14'0 0.0
2017-Jul-26 22:29N 59°44' E 010°14'0 0.0
2017-Jul-26 21:56N 59°44' E 010°14'0 0.0
2017-Jul-26 21:29N 59°44' E 010°14'0 0.0
2017-Jul-26 20:59N 59°44' E 010°14'0 0.0
2017-Jul-26 20:29N 59°44' E 010°14'0 0.0
2017-Jul-26 19:59N 59°44' E 010°14'0 0.0
2017-Jul-26 19:29N 59°44' E 010°14'0 0.0
2017-Jul-26 18:59N 59°44' E 010°14'0 0.0
2017-Jul-26 18:29N 59°44' E 010°14'0 0.0
2017-Jul-26 17:59N 59°44' E 010°14'0 0.0
2017-Jul-26 17:26N 59°44' E 010°14'0 0.0
2017-Jul-26 16:59N 59°44' E 010°14'0 0.0
2017-Jul-26 16:29N 59°44' E 010°14'0 0.0
2017-Jul-26 15:59N 59°44' E 010°14'0 0.0
2017-Jul-26 15:29N 59°44' E 010°14'0 0.0
2017-Jul-26 14:59N 59°44' E 010°14'0 0.0
2017-Jul-26 13:59N 59°44' E 010°14'0 0.0
2017-Jul-26 13:29N 59°44' E 010°14'0 0.0
2017-Jul-26 12:59N 59°44' E 010°14'0 0.0
2017-Jul-26 12:29N 59°44' E 010°14'0 0.0
2017-Jul-26 11:59N 59°44' E 010°14'0 0.0
2017-Jul-26 11:29N 59°44' E 010°14'0 0.0
2017-Jul-26 10:59N 59°44' E 010°14'0 0.0
2017-Jul-26 10:30N 59°44' E 010°14'1 1.5
2017-Jul-26 10:00N 59°44' E 010°15'510.5
2017-Jul-26 09:30N 59°41' E 010°23'5 9.5
2017-Jul-26 09:00N 59°36' E 010°25'5 9.5
2017-Jul-26 08:30N 59°31' E 010°25'612.0
2017-Jul-26 08:00N 59°27' E 010°33'611.9
2017-Jul-26 07:30N 59°21' E 010°36'612.2
2017-Jul-26 07:00N 59°15' E 010°38'612.6
2017-Jul-26 06:30N 59°09' E 010°38'510.5
2017-Jul-26 06:00N 59°04' E 010°34'4 8.7
2017-Jul-26 05:30N 58°59' E 010°34'4 8.2
2017-Jul-26 05:00N 58°56' E 010°31'4 7.9
2017-Jul-26 04:30N 58°52' E 010°27'4 7.9
2017-Jul-26 04:00N 58°49' E 010°23'4 7.9
2017-Jul-26 03:30N 58°45' E 010°19'4 7.9
2017-Jul-26 03:00N 58°42' E 010°16'4 7.9
2017-Jul-26 02:30N 58°38' E 010°13'4 7.8
2017-Jul-26 02:00N 58°35' E 010°09'4 7.9
2017-Jul-26 01:30N 58°31' E 010°06'4 8.0
2017-Jul-26 01:00N 58°28' E 010°02'4 8.0
2017-Jul-26 00:30N 58°24' E 009°59'47 7.9
2017-Jul-25 18:36N 57°47' E 009°07'1 8.1
2017-Jul-25 18:29N 57°46' E 009°06'4 8.7
2017-Jul-25 18:00N 57°42' E 009°01'4910.2
2017-Jul-25 13:11N 57°03' E 008°06'4 9.5
2017-Jul-25 12:49N 56°59' E 008°05'3 9.1
2017-Jul-25 12:30N 56°58' E 008°00'181 8.9
2017-Jul-24 16:02N 54°20' E 005°22'0 8.4
2017-Jul-24 16:00N 54°20' E 005°22'77 9.2
2017-Jul-24 07:38N 53°09' E 004°31'2 9.2
2017-Jul-24 07:28N 53°08' E 004°30'4 9.7
2017-Jul-24 07:00N 53°04' E 004°26'5 9.9
2017-Jul-24 06:30N 52°60' E 004°21'611.2
2017-Jul-24 06:00N 52°54' E 004°18'712.9
2017-Jul-24 05:30N 52°49' E 004°13'2712.6
2017-Jul-24 03:22N 52°29' E 003°42'4914.9
2017-Jul-24 00:04N 51°43' E 003°17'0 0.0
2017-Jul-24 00:00N 51°43' E 003°17'0 0.0
2017-Jul-23 23:30N 51°43' E 003°17'3 7.0
2017-Jul-23 23:00N 51°40' E 003°20'510.4
2017-Jul-23 22:30N 51°35' E 003°24'510.0
2017-Jul-23 22:00N 51°30' E 003°27'5 9.3
2017-Jul-23 21:30N 51°27' E 003°32'4 7.5
2017-Jul-23 21:00N 51°26' E 003°38'5 9.2
2017-Jul-23 20:30N 51°23' E 003°43'5 9.9
2017-Jul-23 20:00N 51°20' E 003°49'0 0.6
2017-Jul-23 19:30N 51°19' E 003°49'2 4.8
2017-Jul-23 19:00N 51°17' E 003°50'4 8.0
2017-Jul-23 18:30N 51°13' E 003°48'3 6.6
2017-Jul-23 18:01N 51°10' E 003°47'0 0.0
2017-Jul-23 17:30N 51°10' E 003°47'0 0.0
2017-Jul-23 17:00N 51°10' E 003°47'0 0.0
2017-Jul-23 16:30N 51°10' E 003°47'0 0.0
2017-Jul-23 16:00N 51°10' E 003°47'0 0.0
2017-Jul-23 15:30N 51°10' E 003°47'0 0.0
2017-Jul-23 15:00N 51°10' E 003°47'0 0.0
2017-Jul-23 14:30N 51°10' E 003°47'0 0.0
2017-Jul-23 14:00N 51°10' E 003°47'0 0.0
2017-Jul-23 13:30N 51°10' E 003°47'0 0.0
2017-Jul-23 13:00N 51°10' E 003°47'0 0.0
2017-Jul-23 12:30N 51°10' E 003°47'0 0.0
2017-Jul-23 12:00N 51°10' E 003°47'0 0.0
2017-Jul-23 11:30N 51°10' E 003°47'0 0.0
2017-Jul-23 11:00N 51°10' E 003°47'0 0.0
2017-Jul-23 10:30N 51°10' E 003°47'0 0.0
2017-Jul-23 10:00N 51°10' E 003°47'0 0.0
2017-Jul-23 09:30N 51°10' E 003°47'0 0.0
2017-Jul-23 09:00N 51°10' E 003°47'0 0.0
2017-Jul-23 08:30N 51°10' E 003°47'0 0.0
2017-Jul-23 08:00N 51°10' E 003°47'0 0.0
2017-Jul-23 07:30N 51°10' E 003°47'0 0.0
2017-Jul-23 07:00N 51°10' E 003°47'0 0.0
2017-Jul-23 06:30N 51°10' E 003°47'0 0.0
2017-Jul-23 06:00N 51°10' E 003°47'0 0.0
2017-Jul-23 05:30N 51°10' E 003°47'0 0.0
2017-Jul-23 05:00N 51°10' E 003°47'0 0.0
2017-Jul-23 04:30N 51°10' E 003°47'0 0.0
2017-Jul-23 04:00N 51°10' E 003°47'0 0.0
2017-Jul-23 03:30N 51°10' E 003°47'0 0.0
2017-Jul-23 03:00N 51°10' E 003°47'0 0.0
2017-Jul-23 02:30N 51°10' E 003°47'0 0.0
2017-Jul-23 02:00N 51°10' E 003°47'0 0.0
2017-Jul-23 01:30N 51°10' E 003°47'0 0.0
2017-Jul-23 01:00N 51°10' E 003°47'0 0.0
2017-Jul-23 00:30N 51°10' E 003°47'0 0.0
2017-Jul-23 00:00N 51°10' E 003°47'0 0.0
2017-Jul-22 23:30N 51°10' E 003°47'0 0.0
2017-Jul-22 23:00N 51°10' E 003°47'0 0.0
2017-Jul-22 22:30N 51°10' E 003°47'0 0.0
2017-Jul-22 22:00N 51°10' E 003°47'0 0.0
2017-Jul-22 21:30N 51°10' E 003°47'0 0.0
2017-Jul-22 21:00N 51°10' E 003°47'0 0.0
2017-Jul-22 20:29N 51°10' E 003°47'0 0.0
2017-Jul-22 19:56N 51°10' E 003°47'0 0.0
2017-Jul-22 19:30N 51°10' E 003°47'0 0.0
2017-Jul-22 19:00N 51°10' E 003°47'0 0.0
2017-Jul-22 18:30N 51°10' E 003°47'0 0.0
2017-Jul-22 18:00N 51°10' E 003°47'0 0.0
2017-Jul-22 17:30N 51°10' E 003°47'0 0.0
2017-Jul-22 17:00N 51°10' E 003°47'0 0.0
2017-Jul-22 16:30N 51°10' E 003°47'0 0.0
2017-Jul-22 16:01N 51°10' E 003°47'0 0.0
2017-Jul-22 15:30N 51°10' E 003°47'0 0.0
2017-Jul-22 15:00N 51°10' E 003°47'0 0.0
2017-Jul-22 14:00N 51°10' E 003°47'0 0.0
2017-Jul-22 13:30N 51°10' E 003°47'0 0.0
2017-Jul-22 13:00N 51°10' E 003°47'0 0.0
2017-Jul-22 12:30N 51°10' E 003°47'0 0.0
2017-Jul-22 12:00N 51°10' E 003°47'0 0.0
2017-Jul-22 11:30N 51°10' E 003°47'0 0.0
2017-Jul-22 11:00N 51°10' E 003°47'0 0.0
2017-Jul-22 10:30N 51°10' E 003°47'0 0.0
2017-Jul-22 10:00N 51°10' E 003°47'0 0.0
2017-Jul-22 09:30N 51°10' E 003°47'0 0.0
2017-Jul-22 09:00N 51°10' E 003°47'0 0.0
2017-Jul-22 08:30N 51°10' E 003°47'0 0.0
2017-Jul-22 08:00N 51°10' E 003°47'0 0.0
2017-Jul-22 07:30N 51°10' E 003°47'0 0.0
2017-Jul-22 07:00N 51°10' E 003°47'0 0.0
2017-Jul-22 06:30N 51°10' E 003°47'0 0.0
2017-Jul-22 06:00N 51°10' E 003°47'0 0.0
2017-Jul-22 05:30N 51°10' E 003°47'0 0.0
2017-Jul-22 05:00N 51°10' E 003°47'0 0.0
2017-Jul-22 04:30N 51°10' E 003°47'0 0.0
2017-Jul-22 04:00N 51°10' E 003°47'0 0.0
2017-Jul-22 03:30N 51°10' E 003°47'0 0.0
2017-Jul-22 03:00N 51°10' E 003°47'0 0.0
2017-Jul-22 02:30N 51°10' E 003°47'0 0.0
2017-Jul-22 02:00N 51°10' E 003°47'0 0.0
2017-Jul-22 01:30N 51°10' E 003°47'0 0.0
2017-Jul-22 01:00N 51°10' E 003°47'0 0.0
2017-Jul-22 00:30N 51°10' E 003°47'0 0.0
2017-Jul-22 00:00N 51°10' E 003°47'0 0.0
2017-Jul-21 23:30N 51°10' E 003°47'0 0.0
2017-Jul-21 23:00N 51°10' E 003°47'0 0.0
2017-Jul-21 22:30N 51°10' E 003°47'0 0.0
2017-Jul-21 22:00N 51°10' E 003°47'0 0.0
2017-Jul-21 21:30N 51°10' E 003°47'0 0.0
2017-Jul-21 21:00N 51°10' E 003°47'0 0.0
2017-Jul-21 20:30N 51°10' E 003°47'0 0.0
2017-Jul-21 20:00N 51°10' E 003°47'0 0.0
2017-Jul-21 19:30N 51°10' E 003°47'0 0.0
2017-Jul-21 19:00N 51°10' E 003°47'0 0.0
2017-Jul-21 18:30N 51°10' E 003°47'0 0.0
2017-Jul-21 18:00N 51°10' E 003°47'0 0.0
2017-Jul-21 17:30N 51°10' E 003°47'0 0.0
2017-Jul-21 17:00N 51°10' E 003°47'0 0.0
2017-Jul-21 16:30N 51°10' E 003°47'0 0.0
2017-Jul-21 16:00N 51°10' E 003°47'0 0.0
2017-Jul-21 15:30N 51°10' E 003°47'0 0.0
2017-Jul-21 15:00N 51°10' E 003°47'0 0.0
2017-Jul-21 14:30N 51°10' E 003°47'0 0.0
2017-Jul-21 14:00N 51°10' E 003°47'0 0.0
2017-Jul-21 13:30N 51°10' E 003°47'0 0.0
2017-Jul-21 13:00N 51°10' E 003°47'1 1.9
2017-Jul-21 12:30N 51°11' E 003°48'4 7.5
2017-Jul-21 12:00N 51°15' E 003°49'3 6.7
2017-Jul-21 11:30N 51°18' E 003°50'2 3.9
2017-Jul-21 11:00N 51°20' E 003°49'0 0.3
2017-Jul-21 10:30N 51°20' E 003°49'4 7.5
2017-Jul-21 10:00N 51°22' E 003°44'611.8
2017-Jul-21 09:30N 51°26' E 003°36'4 8.6
2017-Jul-21 09:00N 51°25' E 003°30'612.8
2017-Jul-21 08:30N 51°24' E 003°19'612.5
2017-Jul-21 08:00N 51°24' E 003°09'611.1
2017-Jul-21 07:30N 51°24' E 003°01'511.0
2017-Jul-21 07:00N 51°22' E 002°52'510.3
2017-Jul-21 06:30N 51°21' E 002°44'3 5.7
2017-Jul-21 06:00N 51°22' E 002°40'2 4.2
2017-Jul-21 05:31N 51°22' E 002°36'2 4.2
2017-Jul-21 05:00N 51°22' E 002°33'2 4.4
2017-Jul-21 04:31N 51°22' E 002°29'3 5.7
2017-Jul-21 04:00N 51°21' E 002°25'3 5.3
2017-Jul-21 03:30N 51°19' E 002°22'3 5.8
2017-Jul-21 03:00N 51°18' E 002°18'4 7.5
2017-Jul-21 02:30N 51°15' E 002°13'4 8.1
2017-Jul-21 02:00N 51°13' E 002°07'4 8.1
2017-Jul-21 01:30N 51°11' E 002°02'4 7.6
2017-Jul-21 01:00N 51°10' E 001°56'4 8.4
2017-Jul-21 00:31N 51°08' E 001°50'4 8.6
2017-Jul-21 00:00N 51°05' E 001°45'5 9.2
2017-Jul-20 23:30N 51°02' E 001°40'5 9.7
2017-Jul-20 23:00N 50°58' E 001°35'610.9
2017-Jul-20 22:30N 50°54' E 001°29'71 8.3
2017-Jul-20 13:56N 50°16' W 000°05'3 7.9
2017-Jul-20 13:30N 50°15' W 000°10'4 7.6
2017-Jul-20 12:59N 50°14' W 000°16'4 7.3
2017-Jul-20 12:30N 50°13' W 000°22'36 7.5
2017-Jul-20 07:37N 50°04' W 001°17'1 9.5
2017-Jul-20 07:30N 50°04' W 001°18'5 9.8
2017-Jul-20 07:00N 50°02' W 001°26'510.5
2017-Jul-20 06:30N 50°01' W 001°34'611.1
2017-Jul-20 06:01N 49°60' W 001°42'612.0
2017-Jul-20 05:31N 49°58' W 001°51'612.2
2017-Jul-20 05:00N 49°57' W 002°00'612.2
2017-Jul-20 04:30N 49°55' W 002°09'1911.4
2017-Jul-20 02:48N 49°50' W 002°39'310.8
2017-Jul-20 02:30N 49°50' W 002°43'510.5
2017-Jul-20 02:01N 49°48' W 002°51'910.0
2017-Jul-20 01:07N 49°44' W 003°04'1 9.9
2017-Jul-20 00:59N 49°44' W 003°06'6 9.8
2017-Jul-20 00:23N 49°41' W 003°14'4 9.6
2017-Jul-20 00:00N 49°39' W 003°18'5 9.6
2017-Jul-19 23:30N 49°37' W 003°25'5 9.3
2017-Jul-19 23:00N 49°34' W 003°31'5 9.2
2017-Jul-19 22:30N 49°32' W 003°37'9 9.0
2017-Jul-19 21:28N 49°27' W 003°50'4 8.7
2017-Jul-19 20:59N 49°25' W 003°55'93 9.4
2017-Jul-19 11:10N 48°30' W 005°48'311.5
2017-Jul-19 10:55N 48°27' W 005°50'512.0
2017-Jul-19 10:29N 48°23' W 005°54'  

Dump ship's entire track history